Time;durP1;ratioP1;P1;durP2;ratioP2;P2;SDS_P1;SDS_P2;PMS_P1;PMS_P2;Temp;Humidity;BMP_temperature;BMP_pressure;BME280_temperature;BME280_humidity;BME280_pressure;Samples;Min_cycle;Max_cycle;Signal;HPM_P1;HPM_P2
2022/01/13 00:01:55;;;;;;;63.38;27.27;;;;;;;-3.04;74.84;99810.20;1712234;82;21031;-56
2022/01/13 00:04:23;;;;;;;65.35;27.35;;;;;;;-3.06;74.82;99825.92;1712400;82;21086;-55
2022/01/13 00:06:50;;;;;;;63.87;28.02;;;;;;;-3.03;75.03;99829.10;1712327;82;21417;-56
2022/01/13 00:09:17;;;;;;;56.28;25.95;;;;;;;-3.04;75.16;99828.77;1712541;83;20996;-56
2022/01/13 00:11:46;;;;;;;54.93;23.87;;;;;;;-2.96;75.35;99828.02;1725585;82;21068;-56
2022/01/13 00:22:22;;;;;;;63.42;23.55;;;;;;;-2.81;75.55;99817.74;1733971;81;21445;-56
2022/01/13 00:24:47;;;;;;;46.83;18.10;;;;;;;-2.74;75.46;99818.78;1736291;82;21091;-56
2022/01/13 00:27:14;;;;;;;41.63;20.80;;;;;;;-2.69;75.50;99814.70;1737049;82;21032;-56
2022/01/13 00:29:43;;;;;;;55.90;24.47;;;;;;;-2.68;75.56;99815.04;1737152;82;21501;-56
2022/01/13 00:32:13;;;;;;;37.30;17.85;;;;;;;-2.71;75.70;99819.33;1737126;82;21240;-56
2022/01/13 00:34:40;;;;;;;47.83;23.20;;;;;;;-2.67;75.89;99818.03;1736642;82;21004;-56
2022/01/13 00:37:07;;;;;;;60.03;24.82;;;;;;;-2.71;76.01;99816.68;1719971;82;21010;-57
2022/01/13 00:39:34;;;;;;;57.05;25.23;;;;;;;-2.67;76.21;99816.70;1712441;83;21704;-56
2022/01/13 00:42:01;;;;;;;56.28;24.07;;;;;;;-2.68;76.03;99811.55;1712518;82;20999;-56
2022/01/13 00:44:34;;;;;;;63.52;26.40;;;;;;;-2.75;76.41;99814.46;1712589;82;21407;-56
2022/01/13 00:47:00;;;;;;;54.48;23.15;;;;;;;-2.71;76.49;99818.01;1711901;82;21025;-56
2022/01/13 00:49:26;;;;;;;54.40;20.10;;;;;;;-2.63;76.54;99814.60;1767354;80;28237;-55
2022/01/13 00:51:53;;;;;;;58.63;25.90;;;;;;;-2.62;76.67;99821.58;1701225;82;21028;-56
2022/01/13 00:54:20;;;;;;;59.38;24.98;;;;;;;-2.63;76.92;99829.20;1710428;83;21048;-56
2022/01/13 00:56:47;;;;;;;58.02;24.72;;;;;;;-2.56;77.06;99829.77;1711689;82;21573;-56
2022/01/13 00:59:14;;;;;;;54.08;23.67;;;;;;;-2.49;77.14;99833.13;1712609;83;21057;-57
2022/01/13 01:01:47;;;;;;;61.00;26.62;;;;;;;-2.47;77.28;99827.20;1728697;82;20982;-56
2022/01/13 01:04:14;;;;;;;58.42;24.98;;;;;;;-2.41;77.08;99826.56;1737266;82;21429;-57
2022/01/13 01:06:41;;;;;;;50.00;23.50;;;;;;;-2.38;77.02;99827.11;1733347;82;20977;-56
2022/01/13 01:09:14;;;;;;;59.73;27.95;;;;;;;-2.45;77.15;99811.44;1737239;82;21407;-56
2022/01/13 01:11:38;;;;;;;58.48;26.33;;;;;;;-2.45;77.09;99816.75;1733678;82;21050;-56
2022/01/13 01:14:07;;;;;;;59.88;27.82;;;;;;;-2.44;77.54;99832.19;1737010;82;21053;-56
2022/01/13 01:16:36;;;;;;;56.80;22.02;;;;;;;-2.42;77.42;99836.35;1736959;82;21004;-57
2022/01/13 01:19:06;;;;;;;60.33;26.15;;;;;;;-2.40;77.23;99836.19;1737206;82;21004;-56
2022/01/13 01:24:32;;;;;;;62.60;26.52;;;;;;;-2.53;77.85;99839.73;1736942;82;21460;-57
2022/01/13 01:26:48;;;;;;;64.03;26.75;;;;;;;-2.51;77.97;99847.05;1721118;82;21579;-58
2022/01/13 01:31:49;;;;;;;69.32;31.87;;;;;;;-2.47;78.11;99841.30;1736697;82;20996;-57
2022/01/13 01:36:51;;;;;;;48.08;22.77;;;;;;;-2.42;77.82;99856.27;1736652;82;21009;-58
2022/01/13 01:39:18;;;;;;;40.25;21.05;;;;;;;-2.33;77.78;99846.55;1737164;82;21060;-57
2022/01/13 01:41:48;;;;;;;74.10;30.95;;;;;;;-2.33;77.80;99847.87;1736833;82;21044;-58
2022/01/13 01:44:26;;;;;;;58.68;27.07;;;;;;;-2.38;78.09;99844.37;1737184;82;21028;-57
2022/01/13 01:46:51;;;;;;;67.30;29.55;;;;;;;-2.33;77.87;99854.02;1721604;82;22064;-58
2022/01/13 01:49:23;;;;;;;67.47;30.12;;;;;;;-2.39;78.12;99857.30;1763839;80;21041;-58
2022/01/13 01:51:54;;;;;;;61.63;29.18;;;;;;;-2.34;78.06;99859.00;1741032;80;21059;-58
2022/01/13 01:54:21;;;;;;;51.75;24.70;;;;;;;-2.27;78.36;99861.39;1736353;82;21009;-57
2022/01/13 01:56:48;;;;;;;65.15;27.37;;;;;;;-2.27;78.41;99867.20;1729462;82;21538;-58
2022/01/13 01:59:18;;;;;;;61.08;28.27;;;;;;;-2.28;78.33;99861.05;1719925;80;21292;-58
2022/01/13 02:01:47;;;;;;;65.17;29.40;;;;;;;-2.23;78.51;99853.10;1717427;82;20987;-58
2022/01/13 02:04:14;;;;;;;60.65;28.40;;;;;;;-2.27;78.67;99832.67;1719784;80;20977;-58
2022/01/13 02:06:44;;;;;;;55.17;21.23;;;;;;;-2.29;78.75;99826.19;1732692;82;21040;-58
2022/01/13 02:09:11;;;;;;;;;;;;;;;-2.24;79.33;99836.83;1739811;82;21012;-58
2022/01/13 02:11:44;;;;;;;63.73;27.58;;;;;;;-2.27;79.26;99850.77;1715550;82;21414;-57
2022/01/13 02:14:30;;;;;;;53.30;24.82;;;;;;;-2.18;79.37;99848.18;1736954;82;21004;-57
2022/01/13 02:16:51;;;;;;;;;;;;;;;-2.19;79.42;99844.69;1709965;82;21036;-56
2022/01/13 02:19:18;;;;;;;53.08;25.82;;;;;;;-2.20;79.97;99847.01;1712850;83;20466;-56
2022/01/13 02:21:45;;;;;;;55.52;25.17;;;;;;;-2.17;79.33;99844.03;1712287;82;21073;-56
2022/01/13 02:24:11;;;;;;;62.08;26.82;;;;;;;-2.16;79.77;99829.77;1712673;83;21280;-56
2022/01/13 02:26:38;;;;;;;61.37;30.68;;;;;;;-2.08;80.09;99822.35;1712251;82;21007;-56
2022/01/13 02:29:05;;;;;;;61.58;28.25;;;;;;;-2.02;80.08;99821.73;1712705;83;20987;-57
2022/01/13 02:31:32;;;;;;;46.05;23.42;;;;;;;-1.97;80.11;99833.22;1715570;82;20984;-57
2022/01/13 02:33:59;;;;;;;53.10;25.92;;;;;;;-1.92;80.36;99842.40;1712450;83;21467;-56
2022/01/13 02:36:27;;;;;;;51.13;24.02;;;;;;;-1.86;80.30;99865.70;1723391;82;21376;-56
2022/01/13 02:38:54;;;;;;;54.77;23.40;;;;;;;-1.80;80.22;99870.38;1737190;82;20958;-56
2022/01/13 02:41:24;;;;;;;57.98;29.05;;;;;;;-1.72;80.40;99855.81;1733951;82;20992;-56
2022/01/13 02:43:53;;;;;;;49.90;25.60;;;;;;;-1.74;80.04;99846.34;1712748;82;21011;-57
2022/01/13 02:46:54;;;;;;;55.33;27.50;;;;;;;-1.72;80.28;99838.53;1721848;82;20992;-56
2022/01/13 02:48:59;;;;;;;59.38;25.90;;;;;;;-1.68;80.65;99832.92;1712295;82;21393;-56
2022/01/13 02:51:27;;;;;;;61.18;28.98;;;;;;;-1.68;80.21;99804.52;1715307;82;21058;-57
2022/01/13 02:53:54;;;;;;;66.97;30.10;;;;;;;-1.75;80.32;99789.69;1712853;82;21038;-57
2022/01/13 02:56:21;;;;;;;56.35;27.55;;;;;;;-1.74;80.54;99796.67;1712438;82;21018;-57
2022/01/13 02:58:48;;;;;;;46.58;22.93;;;;;;;-1.74;80.84;99790.02;1716474;82;21008;-57
2022/01/13 03:01:15;;;;;;;58.92;24.90;;;;;;;-1.69;80.66;99788.23;1703356;82;22004;-58
2022/01/13 03:03:43;;;;;;;58.02;26.27;;;;;;;-1.71;80.90;99776.91;1712541;83;21510;-58
2022/01/13 03:06:13;;;;;;;71.30;30.82;;;;;;;-1.80;81.04;99764.56;1723293;82;21428;-58
2022/01/13 03:08:46;;;;;;;75.50;38.65;;;;;;;-1.93;81.14;99772.14;1737194;82;21004;-58
2022/01/13 03:11:14;;;;;;;65.57;29.52;;;;;;;-1.93;81.26;99776.12;1736939;82;21483;-58
2022/01/13 03:13:41;;;;;;;60.48;27.73;;;;;;;-1.93;81.45;99782.28;1737217;82;22151;-58
2022/01/13 03:16:12;;;;;;;74.00;31.85;;;;;;;-1.93;81.88;99794.23;1713432;82;20995;-58
2022/01/13 03:18:39;;;;;;;67.30;30.82;;;;;;;-2.01;81.78;99799.49;1712715;83;21062;-58
2022/01/13 03:21:07;;;;;;;54.25;29.45;;;;;;;-1.92;82.24;99809.68;1712125;82;21455;-58
2022/01/13 03:23:35;;;;;;;63.33;28.80;;;;;;;-1.89;82.51;99822.15;1712677;83;21463;-58
2022/01/13 03:37:51;;;;;;;44.30;22.25;;;;;;;-1.68;83.09;99816.98;1736845;82;20997;-57
2022/01/13 03:40:18;;;;;;;41.13;22.48;;;;;;;-1.61;82.92;99814.86;1734989;82;21013;-57
2022/01/13 03:42:45;;;;;;;45.28;21.10;;;;;;;-1.58;82.78;99813.20;1712798;82;21403;-58
2022/01/13 03:45:12;;;;;;;38.90;19.10;;;;;;;-1.46;82.83;99803.11;1712475;82;20992;-58
2022/01/13 03:47:39;;;;;;;32.95;18.82;;;;;;;-1.40;83.27;99795.84;1722387;80;21463;-58
2022/01/13 03:50:06;;;;;;;33.15;14.98;;;;;;;-1.35;83.11;99797.53;1706013;84;21603;-58
2022/01/13 03:53:01;;;;;;;68.67;31.15;;;;;;;-1.23;83.33;99783.44;1673499;85;21077;-58
2022/01/13 03:55:46;;;;;;;50.63;24.82;;;;;;;-1.22;83.34;99781.94;1701734;84;21610;-57
2022/01/13 03:58:38;;;;;;;48.02;21.87;;;;;;;-1.25;83.60;99776.12;1737155;82;20989;-58
2022/01/13 04:01:36;;;;;;;33.02;15.98;;;;;;;-1.33;83.44;99774.27;1737023;82;21008;-57
2022/01/13 04:04:02;;;;;;;28.20;13.22;;;;;;;-1.25;83.84;99772.13;1736558;82;21012;-57
2022/01/13 04:06:41;;;;;;;23.02;12.10;;;;;;;-1.13;84.30;99769.50;1700562;83;21631;-57
2022/01/13 04:09:26;;;;;;;21.48;12.00;;;;;;;-1.00;83.98;99771.20;1710382;83;21076;-57
2022/01/13 04:11:53;;;;;;;23.22;12.28;;;;;;;-0.86;83.90;99783.03;1719698;82;21015;-57
2022/01/13 04:14:36;;;;;;;25.43;12.23;;;;;;;-0.77;84.17;99789.20;1713110;80;21069;-57
2022/01/13 04:16:58;;;;;;;29.52;14.87;;;;;;;-0.69;83.82;99778.06;1730914;82;20996;-57
2022/01/13 04:19:25;;;;;;;23.18;13.13;;;;;;;-0.64;84.39;99782.41;1737065;82;21000;-57
2022/01/13 04:21:52;;;;;;;17.32;7.62;;;;;;;-0.59;84.03;99793.91;1736785;82;21364;-57
2022/01/13 04:24:18;;;;;;;19.12;10.78;;;;;;;-0.52;83.92;99802.05;1737107;82;21493;-57
2022/01/13 04:26:45;;;;;;;24.12;10.90;;;;;;;-0.54;84.29;99797.39;1722683;82;21455;-57
2022/01/13 04:31:47;;;;;;;20.30;10.05;;;;;;;-0.49;84.14;99778.59;1712244;82;20986;-57
2022/01/13 04:34:14;;;;;;;22.35;12.03;;;;;;;-0.45;83.92;99784.41;1711845;83;22057;-57
2022/01/13 04:36:41;;;;;;;24.50;12.90;;;;;;;-0.43;84.09;99784.58;1728131;82;21453;-57
2022/01/13 04:39:08;;;;;;;26.45;13.25;;;;;;;-0.37;83.78;99786.58;1737246;82;21071;-57
2022/01/13 04:41:37;;;;;;;19.62;10.63;;;;;;;-0.32;83.95;99782.09;1736686;82;21623;-56
2022/01/13 04:44:09;;;;;;;13.13;5.85;;;;;;;-0.25;83.69;99783.60;1737089;82;21270;-57
2022/01/13 04:46:36;;;;;;;22.10;10.85;;;;;;;-0.22;83.68;99786.75;1736714;82;21088;-57
2022/01/13 04:49:04;;;;;;;23.73;11.00;;;;;;;-0.27;83.84;99772.26;1715242;82;20996;-57
2022/01/13 04:51:31;;;;;;;23.92;12.68;;;;;;;-0.27;83.87;99774.92;1714568;82;20977;-57
2022/01/13 04:53:58;;;;;;;21.68;10.95;;;;;;;-0.24;83.71;99778.10;1737148;82;21039;-58
2022/01/13 04:56:44;;;;;;;23.65;12.73;;;;;;;-0.19;83.58;99776.25;1734524;82;21059;-57
2022/01/13 04:59:10;;;;;;;20.37;10.30;;;;;;;-0.24;83.73;99778.60;1736945;82;21278;-57
2022/01/13 05:01:37;;;;;;;23.75;13.13;;;;;;;-0.22;83.79;99765.94;1713163;82;21032;-57
2022/01/13 05:04:05;;;;;;;20.62;12.07;;;;;;;-0.20;83.88;99759.44;1690484;84;21440;-57
2022/01/13 05:06:32;;;;;;;25.27;12.90;;;;;;;-0.18;84.02;99758.75;1712945;82;21016;-57
2022/01/13 05:08:59;;;;;;;22.50;11.75;;;;;;;-0.14;83.92;99773.42;1737286;82;21025;-56
2022/01/13 05:11:26;;;;;;;22.07;11.65;;;;;;;-0.12;83.96;99771.92;1726468;82;21363;-57
2022/01/13 05:13:53;;;;;;;21.52;11.18;;;;;;;-0.09;83.81;99774.23;1712431;83;21491;-57
2022/01/13 05:16:24;;;;;;;24.95;11.73;;;;;;;-0.06;83.76;99768.59;1719138;81;22021;-57
2022/01/13 05:19:08;;;;;;;24.43;12.00;;;;;;;-0.05;83.77;99763.08;1711531;83;27519;-57
2022/01/13 05:21:27;;;;;;;24.10;11.33;;;;;;;-0.03;83.45;99768.23;1720215;82;21520;-57
2022/01/13 05:23:53;;;;;;;21.20;12.75;;;;;;;-0.05;83.45;99768.41;1737481;82;21022;-56
2022/01/13 05:26:21;;;;;;;25.15;14.85;;;;;;;-0.07;83.49;99766.42;1737195;82;20953;-56
2022/01/13 05:28:48;;;;;;;26.40;13.85;;;;;;;-0.02;83.50;99762.73;1737793;82;20929;-56
2022/01/13 05:31:15;;;;;;;24.77;13.35;;;;;;;-0.02;83.35;99771.23;1736357;82;21001;-57
2022/01/13 05:33:42;;;;;;;22.85;10.93;;;;;;;-0.02;83.38;99761.91;1736891;82;20986;-57
2022/01/13 05:36:09;;;;;;;24.43;12.33;;;;;;;-0.01;83.57;99763.06;1736587;82;21389;-57
2022/01/13 05:38:37;;;;;;;20.65;11.63;;;;;;;0.05;83.52;99768.23;1736990;82;21057;-57
2022/01/13 05:41:04;;;;;;;29.40;14.78;;;;;;;0.08;83.54;99767.88;1727597;82;20987;-56
2022/01/13 05:43:31;;;;;;;22.00;12.93;;;;;;;0.10;83.38;99767.73;1712666;82;21039;-57
2022/01/13 05:45:57;;;;;;;21.48;10.78;;;;;;;0.11;83.25;99769.39;1712301;82;21093;-57
2022/01/13 05:48:24;;;;;;;29.42;13.35;;;;;;;0.10;83.40;99760.56;1753396;80;21447;-57
2022/01/13 05:50:51;;;;;;;37.13;16.82;;;;;;;0.13;83.48;99756.21;1754266;80;21046;-56
2022/01/13 05:53:18;;;;;;;26.40;14.55;;;;;;;0.17;83.49;99759.36;1712335;82;20972;-55
2022/01/13 05:55:45;;;;;;;36.00;22.67;;;;;;;0.21;83.46;99760.70;1712365;82;21537;-56
2022/01/13 05:58:12;;;;;;;34.33;19.60;;;;;;;0.23;83.43;99754.18;1712289;82;20987;-56
2022/01/13 06:00:39;;;;;;;27.25;13.53;;;;;;;0.26;83.26;99757.03;1712420;82;21630;-56
2022/01/13 06:03:06;;;;;;;25.70;13.13;;;;;;;0.26;83.28;99749.86;1712344;82;20979;-56
2022/01/13 06:05:33;;;;;;;22.42;12.30;;;;;;;0.28;83.27;99743.02;1714525;82;21057;-57
2022/01/13 06:08:00;;;;;;;26.42;14.07;;;;;;;0.30;83.21;99745.50;1736804;82;21061;-55
2022/01/13 06:10:27;;;;;;;29.45;13.35;;;;;;;0.34;83.21;99751.64;1714960;82;21060;-57
2022/01/13 06:12:54;;;;;;;27.02;13.85;;;;;;;0.36;83.11;99744.83;1712393;82;21945;-57
2022/01/13 06:15:23;;;;;;;20.45;11.40;;;;;;;0.35;83.12;99747.17;1718580;80;21394;-55
2022/01/13 06:17:53;;;;;;;23.80;13.22;;;;;;;0.36;83.16;99744.83;1706324;82;21446;-56
2022/01/13 06:20:20;;;;;;;26.42;14.38;;;;;;;0.36;83.05;99757.66;1714401;82;21010;-55
2022/01/13 06:22:48;;;;;;;28.40;15.93;;;;;;;0.39;83.09;99759.14;1736893;82;21021;-56
2022/01/13 06:25:15;;;;;;;27.87;14.85;;;;;;;0.43;83.16;99754.64;1737030;82;21404;-56
2022/01/13 06:27:43;;;;;;;46.65;18.87;;;;;;;0.43;83.00;99757.81;1731005;82;21001;-56
2022/01/13 06:30:14;;;;;;;30.90;16.32;;;;;;;0.44;83.00;99760.80;1723449;82;21610;-56
2022/01/13 06:32:44;;;;;;;22.55;11.88;;;;;;;0.46;82.99;99754.78;1708973;82;21464;-56
2022/01/13 06:35:11;;;;;;;24.18;11.95;;;;;;;0.45;82.86;99768.62;1707374;82;21024;-56
2022/01/13 06:37:40;;;;;;;35.23;18.15;;;;;;;0.39;82.77;99767.97;1735444;82;21738;-56
2022/01/13 06:40:08;;;;;;;;;;;;;;;0.40;82.89;99764.30;1734869;82;21083;-56
2022/01/13 06:42:35;;;;;;;31.63;13.13;;;;;;;0.43;82.95;99759.14;1719991;82;20194;-56
2022/01/13 06:45:04;;;;;;;22.65;13.25;;;;;;;0.41;82.89;99763.29;1724396;82;21480;-56
2022/01/13 06:47:32;;;;;;;32.33;14.45;;;;;;;0.42;82.82;99760.12;1738283;81;21429;-56
2022/01/13 06:49:58;;;;;;;22.80;11.43;;;;;;;0.39;82.95;99759.14;1735454;80;21539;-56
2022/01/13 06:52:25;;;;;;;24.77;9.75;;;;;;;0.36;83.23;99762.99;1736692;82;21031;-56
2022/01/13 06:54:52;;;;;;;26.60;14.85;;;;;;;0.38;83.10;99767.64;1736971;82;21000;-57
2022/01/13 06:57:19;;;;;;;28.25;15.65;;;;;;;0.31;83.30;99761.33;1716841;82;20975;-57
2022/01/13 06:59:47;;;;;;;29.70;13.62;;;;;;;0.28;83.55;99768.34;1720740;82;21016;-56
2022/01/13 07:02:14;;;;;;;21.37;11.40;;;;;;;0.28;83.61;99771.02;1713048;82;21586;-57
2022/01/13 07:04:43;;;;;;;24.67;13.55;;;;;;;0.31;83.18;99773.33;1691399;84;21021;-57
2022/01/13 07:07:10;;;;;;;21.48;11.93;;;;;;;0.31;83.46;99771.16;1719618;82;21471;-57
2022/01/13 07:09:37;;;;;;;26.25;11.43;;;;;;;0.37;83.26;99774.48;1717125;82;21511;-56
2022/01/13 07:12:05;;;;;;;22.50;12.43;;;;;;;0.35;83.14;99770.67;1667479;85;21031;-56
2022/01/13 07:14:32;;;;;;;29.57;14.95;;;;;;;0.34;83.18;99772.97;1721501;82;22042;-57
2022/01/13 07:16:59;;;;;;;18.75;9.95;;;;;;;0.35;83.17;99769.84;1725675;82;21414;-56
2022/01/13 07:19:26;;;;;;;23.83;13.90;;;;;;;0.39;83.24;99776.48;1719666;82;21052;-57
2022/01/13 07:21:53;;;;;;;21.45;12.15;;;;;;;0.30;83.29;99770.33;1716388;82;21036;-56
2022/01/13 07:24:19;;;;;;;30.55;16.80;;;;;;;0.35;83.37;99767.17;1724284;82;20990;-57
2022/01/13 07:26:46;;;;;;;25.90;12.20;;;;;;;0.40;83.24;99756.80;1670294;85;21123;-57
2022/01/13 07:29:13;;;;;;;21.25;9.25;;;;;;;0.45;82.88;99759.80;1721166;82;21457;-56
2022/01/13 07:31:41;;;;;;;22.80;10.50;;;;;;;0.48;83.02;99748.77;1719746;82;21440;-56
2022/01/13 07:34:08;;;;;;;21.85;11.35;;;;;;;0.53;82.92;99748.59;1720152;82;21111;-56
2022/01/13 07:36:37;;;;;;;21.20;10.13;;;;;;;0.63;82.65;99751.55;1716968;82;21036;-55
2022/01/13 07:39:05;;;;;;;18.62;10.28;;;;;;;0.67;82.74;99766.19;1711936;82;26871;-56
2022/01/13 07:41:33;;;;;;;17.05;9.70;;;;;;;0.72;82.60;99755.84;1724113;82;21021;-57
2022/01/13 07:44:01;;;;;;;23.25;12.93;;;;;;;0.79;82.56;99762.15;1714071;82;21041;-56
2022/01/13 07:46:28;;;;;;;26.80;13.00;;;;;;;0.84;82.30;99759.77;1716194;82;21158;-56
2022/01/13 07:48:54;;;;;;;34.90;13.88;;;;;;;0.91;82.28;99758.58;1713378;82;20996;-57
2022/01/13 07:51:22;;;;;;;21.82;11.65;;;;;;;1.00;82.01;99752.19;1718691;82;21361;-56
2022/01/13 07:53:49;;;;;;;26.23;15.28;;;;;;;0.99;81.78;99751.35;1709788;82;21115;-56
2022/01/13 07:56:16;;;;;;;27.50;13.60;;;;;;;1.05;81.65;99749.83;1717161;82;21407;-57
2022/01/13 07:58:44;;;;;;;24.80;11.20;;;;;;;1.11;81.66;99753.97;1711681;82;21039;-57
2022/01/13 08:01:10;;;;;;;28.45;13.30;;;;;;;1.17;81.08;99748.41;1718727;82;20996;-57
2022/01/13 08:03:37;;;;;;;26.00;11.93;;;;;;;1.19;81.12;99749.55;1717528;82;21448;-56
2022/01/13 08:06:04;;;;;;;22.98;10.85;;;;;;;1.25;81.10;99746.18;1719811;82;21032;-57
2022/01/13 08:08:32;;;;;;;26.80;11.28;;;;;;;1.32;81.11;99743.96;1728277;82;22069;-56
2022/01/13 08:10:59;;;;;;;24.65;11.85;;;;;;;1.37;80.57;99726.91;1732369;82;21040;-57
2022/01/13 08:13:26;;;;;;;35.33;17.07;;;;;;;1.40;80.54;99720.37;1680496;84;21007;-56
2022/01/13 08:15:55;;;;;;;35.00;15.72;;;;;;;1.47;80.21;99708.47;1718955;82;21031;-57
2022/01/13 08:21:07;;;;;;;64.17;23.20;;;;;;;1.63;80.14;99700.30;1668418;85;21449;-56
2022/01/13 08:23:34;;;;;;;28.65;12.45;;;;;;;1.68;79.23;99687.21;1723331;82;21115;-57
2022/01/13 08:26:01;;;;;;;27.32;14.28;;;;;;;1.66;79.59;99675.88;1720275;82;21086;-56
2022/01/13 08:28:28;;;;;;;23.25;12.78;;;;;;;1.71;79.19;99677.52;1726195;82;21178;-57
2022/01/13 08:30:56;;;;;;;18.80;10.10;;;;;;;1.75;79.36;99681.97;1713340;82;20969;-57
2022/01/13 08:33:23;;;;;;;32.67;12.27;;;;;;;1.78;79.26;99673.58;1714204;82;21137;-57
2022/01/13 08:35:51;;;;;;;23.02;13.00;;;;;;;1.83;78.80;99671.20;1724444;82;21012;-57
2022/01/13 08:38:19;;;;;;;27.95;13.00;;;;;;;1.82;78.61;99667.70;1717687;82;21053;-56
2022/01/13 08:40:48;;;;;;;18.65;10.28;;;;;;;1.84;78.28;99666.17;1717797;82;21036;-56
2022/01/13 08:43:16;;;;;;;18.37;9.55;;;;;;;1.83;78.06;99670.70;1705478;82;21000;-56
2022/01/13 08:45:43;;;;;;;18.80;9.50;;;;;;;1.85;78.03;99675.34;1719001;82;20975;-57
2022/01/13 08:48:10;;;;;;;26.97;11.73;;;;;;;1.93;77.93;99678.44;1730476;80;21186;-56
2022/01/13 08:50:36;;;;;;;20.62;11.73;;;;;;;1.96;77.73;99678.89;1723436;82;22199;-56
2022/01/13 08:53:04;;;;;;;27.07;11.95;;;;;;;1.95;77.33;99672.39;1712485;82;21699;-56
2022/01/13 08:55:31;;;;;;;23.27;12.35;;;;;;;2.03;77.26;99676.83;1727542;82;21377;-57
2022/01/13 08:57:57;;;;;;;21.35;10.60;;;;;;;2.10;77.35;99670.55;1714491;82;20980;-56
2022/01/13 09:00:24;;;;;;;21.52;9.93;;;;;;;2.16;77.24;99673.84;1711811;82;21092;-56
2022/01/13 09:02:51;;;;;;;13.83;7.42;;;;;;;2.19;76.69;99676.64;1708310;82;21040;-56
2022/01/13 09:05:19;;;;;;;17.00;9.00;;;;;;;2.23;77.03;99682.78;1721827;82;21832;-57
2022/01/13 09:07:46;;;;;;;19.85;10.15;;;;;;;2.31;76.47;99676.98;1720270;82;21084;-56
2022/01/13 09:10:15;;;;;;;45.05;24.27;;;;;;;2.36;76.90;99675.94;1714401;82;21092;-56
2022/01/13 09:12:41;;;;;;;19.73;11.30;;;;;;;2.41;76.50;99671.69;1720525;82;21023;-57
2022/01/13 09:15:31;;;;;;;17.27;9.15;;;;;;;2.42;75.40;99676.02;1711718;82;21282;-57
2022/01/13 09:17:44;;;;;;;26.12;14.18;;;;;;;2.40;75.43;99669.21;1715314;82;21426;-57
2022/01/13 09:20:12;;;;;;;30.62;13.05;;;;;;;2.49;75.75;99674.77;1713258;82;21028;-57
2022/01/13 09:22:39;;;;;;;26.30;12.07;;;;;;;2.59;75.89;99662.44;1711600;82;21020;-56
2022/01/13 09:25:10;;;;;;;26.48;13.32;;;;;;;2.69;75.47;99662.44;1719306;82;20992;-56
2022/01/13 09:27:40;;;;;;;17.73;10.72;;;;;;;2.64;75.04;99664.02;1711519;82;21052;-57
2022/01/13 09:30:10;;;;;;;23.67;12.35;;;;;;;2.69;74.77;99664.30;1715868;82;21082;-57
2022/01/13 09:32:37;;;;;;;22.50;10.50;;;;;;;2.72;74.30;99658.04;1710377;82;20996;-57
2022/01/13 09:35:04;;;;;;;17.87;10.93;;;;;;;2.68;74.75;99662.12;1711431;82;21013;-56
2022/01/13 09:37:32;;;;;;;15.43;8.05;;;;;;;2.74;74.80;99659.22;1710572;82;21685;-57
2022/01/13 09:39:59;;;;;;;21.90;10.08;;;;;;;2.80;73.66;99656.58;1712451;82;21068;-57
2022/01/13 09:42:26;;;;;;;23.70;10.90;;;;;;;2.80;74.04;99659.77;1720797;82;21071;-57
2022/01/13 09:44:55;;;;;;;29.37;15.08;;;;;;;2.85;73.86;99656.03;1713393;82;21068;-57
2022/01/13 09:47:22;;;;;;;29.13;13.83;;;;;;;2.88;73.76;99654.81;1669391;85;21009;-57
2022/01/13 09:49:49;;;;;;;21.05;10.75;;;;;;;2.89;73.10;99649.77;1712987;82;20993;-57
2022/01/13 09:52:16;;;;;;;19.35;11.00;;;;;;;2.85;72.90;99657.37;1697905;82;21079;-56
2022/01/13 09:54:43;;;;;;;20.95;10.53;;;;;;;2.84;72.88;99649.02;1709553;82;21115;-56
2022/01/13 09:57:10;;;;;;;20.85;11.50;;;;;;;2.83;72.75;99652.72;1717618;82;21029;-57
2022/01/13 09:59:37;;;;;;;20.55;11.28;;;;;;;2.84;72.86;99649.02;1706073;82;21043;-57
2022/01/13 10:02:03;;;;;;;24.75;13.48;;;;;;;2.82;72.53;99638.50;1716113;80;21083;-56
2022/01/13 10:04:46;;;;;;;97.17;44.60;;;;;;;2.87;71.96;99633.08;1719595;82;21469;-57
2022/01/13 10:07:17;;;;;;;33.10;15.60;;;;;;;2.85;72.81;99641.81;1718601;82;21096;-57
2022/01/13 10:09:52;;;;;;;;;;;;;;;2.96;72.63;99635.43;1722927;82;21005;-57
2022/01/13 10:12:26;;;;;;;24.05;12.68;;;;;;;3.05;72.43;99644.99;1720437;82;20166;-56
2022/01/13 10:17:29;;;;;;;30.68;17.20;;;;;;;3.13;71.76;99645.89;1710250;82;20989;-55
2022/01/13 10:19:57;;;;;;;43.45;18.57;;;;;;;3.11;71.65;99640.22;1727307;82;22327;-57
2022/01/13 10:22:32;;;;;;;145.30;65.92;;;;;;;3.15;71.73;99647.34;1718951;82;21171;-56
2022/01/13 10:24:59;;;;;;;65.50;30.23;;;;;;;3.11;71.87;99636.20;1717441;82;21119;-57
2022/01/13 10:27:31;;;;;;;37.73;20.72;;;;;;;3.17;71.38;99636.47;1712601;82;21024;-57
2022/01/13 10:30:02;;;;;;;31.30;21.23;;;;;;;3.22;71.46;99638.03;1717258;82;21560;-57
2022/01/13 10:32:36;;;;;;;61.70;26.20;;;;;;;3.21;71.75;99619.80;1704371;82;21087;-57
2022/01/13 10:35:16;;;;;;;79.87;33.73;;;;;;;3.32;71.43;99623.28;1722162;82;22222;-56
2022/01/13 10:37:57;;;;;;;48.33;21.60;;;;;;;3.44;71.40;99628.13;1720783;82;21075;-57
2022/01/13 10:40:33;;;;;;;92.02;30.50;;;;;;;3.60;71.01;99630.52;1720033;82;21406;-56
2022/01/13 10:45:38;;;;;;;53.13;21.75;;;;;;;3.76;70.36;99626.20;1698664;82;21699;-55
2022/01/13 10:48:24;;;;;;;157.43;71.47;;;;;;;3.81;69.74;99624.25;1718686;80;21596;-57
2022/01/13 10:50:56;;;;;;;40.12;28.07;;;;;;;3.81;69.60;99622.91;1719145;82;21074;-56
2022/01/13 10:53:29;;;;;;;191.57;77.00;;;;;;;3.82;69.90;99615.18;1717459;82;21484;-56
2022/01/13 10:56:07;;;;;;;141.28;55.50;;;;;;;3.75;69.16;99608.42;1714668;82;21081;-56
2022/01/13 10:58:37;;;;;;;62.58;27.35;;;;;;;3.70;68.79;99611.41;1709041;82;21088;-56
2022/01/13 11:01:04;;;;;;;23.73;14.30;;;;;;;3.69;68.59;99605.21;1722729;82;21557;-57
2022/01/13 11:03:34;;;;;;;79.25;30.45;;;;;;;3.70;68.35;99604.19;1679945;83;21440;-55
2022/01/13 11:06:04;;;;;;;174.85;65.80;;;;;;;3.81;68.82;99604.14;1660127;85;21053;-56
2022/01/13 11:08:38;;;;;;;66.60;26.73;;;;;;;3.84;69.00;99594.34;1724129;82;21077;-57
2022/01/13 11:11:02;;;;;;;55.95;24.60;;;;;;;3.95;69.06;99579.88;1710604;82;20988;-57
2022/01/13 11:13:35;;;;;;;62.27;29.57;;;;;;;4.00;69.09;99577.92;1719986;82;21071;-57
2022/01/13 11:15:59;;;;;;;39.55;17.70;;;;;;;3.95;68.84;99569.16;1666588;84;21006;-56
2022/01/13 11:18:29;;;;;;;28.85;14.53;;;;;;;4.01;68.86;99577.41;1715751;82;21088;-56
2022/01/13 11:20:56;;;;;;;62.43;28.05;;;;;;;4.00;69.04;99572.56;1706857;82;20976;-55
2022/01/13 11:23:23;;;;;;;108.85;48.95;;;;;;;4.04;68.85;99564.45;1715655;82;21424;-57
2022/01/13 11:25:53;;;;;;;58.23;26.82;;;;;;;3.99;69.27;99568.23;1714547;82;21097;-56
2022/01/13 11:28:20;;;;;;;;;;;;;;;3.99;68.92;99578.96;1709632;82;21105;-56
2022/01/13 11:30:49;;;;;;;104.63;44.88;;;;;;;3.89;68.57;99578.50;1719862;82;20190;-56
2022/01/13 11:33:20;;;;;;;65.57;28.52;;;;;;;3.82;68.79;99568.25;1701983;82;20996;-55
2022/01/13 11:35:55;;;;;;;20.82;11.80;;;;;;;3.81;69.03;99558.55;1717342;82;21078;-56
2022/01/13 11:38:18;;;;;;;33.18;15.10;;;;;;;3.79;68.70;99552.05;1713722;82;21008;-57
2022/01/13 11:40:50;;;;;;;28.42;12.55;;;;;;;3.72;69.09;99543.14;1720639;82;21051;-56
2022/01/13 11:43:35;;;;;;;42.33;19.17;;;;;;;3.64;69.16;99536.09;1735185;82;20981;-56
2022/01/13 11:46:21;;;;;;;47.98;22.20;;;;;;;3.64;69.02;99539.28;1718575;82;21444;-56
2022/01/13 11:49:07;;;;;;;24.12;12.33;;;;;;;3.51;69.48;99541.39;1709231;82;21126;-56
2022/01/13 11:51:40;;;;;;;32.38;15.85;;;;;;;3.47;69.55;99540.11;1718244;82;20992;-56
2022/01/13 11:54:07;;;;;;;16.60;8.55;;;;;;;3.45;69.94;99536.81;1717547;82;21111;-57
2022/01/13 11:56:34;;;;;;;20.70;10.85;;;;;;;3.57;69.35;99525.01;1709302;82;21842;-55
2022/01/13 11:59:01;;;;;;;33.63;15.93;;;;;;;3.56;69.64;99528.20;1703645;82;21056;-57
2022/01/13 12:01:32;;;;;;;26.25;12.63;;;;;;;3.60;69.69;99525.98;1674886;82;21033;-56
2022/01/13 12:04:06;;;;;;;18.27;9.88;;;;;;;3.64;69.88;99523.20;1718280;82;21058;-57
2022/01/13 12:06:45;;;;;;;28.55;13.65;;;;;;;3.67;69.62;99527.67;1716593;82;20977;-56
2022/01/13 12:09:25;;;;;;;20.08;10.98;;;;;;;3.62;69.74;99518.55;1727899;82;21391;-56
2022/01/13 12:11:55;;;;;;;22.00;9.58;;;;;;;3.59;69.83;99516.25;1715545;82;21029;-56